sensor_id;sensor_type;location;lat;lon;timestamp;pressure;altitude;pressure_sealevel;temperature;humidity
75945;BME280;64628;50.104;14.614;2023-12-07T00:00:32;98735.35;;;4.33;43.01
75945;BME280;64628;50.104;14.614;2023-12-07T00:02:57;98735.92;;;4.46;42.97
75945;BME280;64628;50.104;14.614;2023-12-07T00:05:23;98737.00;;;4.22;42.92
75945;BME280;64628;50.104;14.614;2023-12-07T00:07:48;98738.98;;;4.53;42.74
75945;BME280;64628;50.104;14.614;2023-12-07T00:10:14;98740.72;;;4.25;42.90
75945;BME280;64628;50.104;14.614;2023-12-07T00:12:39;98740.79;;;4.25;42.81
75945;BME280;64628;50.104;14.614;2023-12-07T00:15:06;98739.14;;;4.49;42.96
75945;BME280;64628;50.104;14.614;2023-12-07T00:17:30;98738.56;;;4.60;42.79
75945;BME280;64628;50.104;14.614;2023-12-07T00:19:55;98739.03;;;4.31;42.68
75945;BME280;64628;50.104;14.614;2023-12-07T00:22:21;98742.26;;;4.56;42.67
75945;BME280;64628;50.104;14.614;2023-12-07T00:24:46;98747.05;;;4.64;42.99
75945;BME280;64628;50.104;14.614;2023-12-07T00:27:12;98748.42;;;4.12;43.15
75945;BME280;64628;50.104;14.614;2023-12-07T00:29:38;98749.96;;;4.36;43.28
75945;BME280;64628;50.104;14.614;2023-12-07T00:32:03;98752.96;;;4.18;43.17
75945;BME280;64628;50.104;14.614;2023-12-07T00:34:28;98754.53;;;4.45;43.20
75945;BME280;64628;50.104;14.614;2023-12-07T00:36:54;98752.59;;;4.28;43.05
75945;BME280;64628;50.104;14.614;2023-12-07T00:39:20;98759.02;;;4.54;43.03
75945;BME280;64628;50.104;14.614;2023-12-07T00:41:45;98757.36;;;4.43;43.09
75945;BME280;64628;50.104;14.614;2023-12-07T00:44:11;98758.60;;;4.25;43.16
75945;BME280;64628;50.104;14.614;2023-12-07T00:46:36;98758.82;;;4.32;42.98
75945;BME280;64628;50.104;14.614;2023-12-07T00:49:02;98755.86;;;4.64;42.92
75945;BME280;64628;50.104;14.614;2023-12-07T00:51:28;98756.80;;;4.67;42.90
75945;BME280;64628;50.104;14.614;2023-12-07T00:53:53;98756.24;;;4.22;42.85
75945;BME280;64628;50.104;14.614;2023-12-07T00:56:18;98755.50;;;4.69;42.93
75945;BME280;64628;50.104;14.614;2023-12-07T00:58:44;98757.59;;;4.69;42.89
75945;BME280;64628;50.104;14.614;2023-12-07T01:01:09;98763.58;;;4.72;42.77
75945;BME280;64628;50.104;14.614;2023-12-07T01:03:34;98764.47;;;4.69;42.81
75945;BME280;64628;50.104;14.614;2023-12-07T01:06:00;98766.53;;;4.67;42.77
75945;BME280;64628;50.104;14.614;2023-12-07T01:08:25;98769.46;;;4.34;42.92
75945;BME280;64628;50.104;14.614;2023-12-07T01:10:51;98773.78;;;4.61;42.97
75945;BME280;64628;50.104;14.614;2023-12-07T01:13:17;98775.09;;;4.67;42.87
75945;BME280;64628;50.104;14.614;2023-12-07T01:15:42;98779.06;;;4.67;42.91
75945;BME280;64628;50.104;14.614;2023-12-07T01:18:07;98779.92;;;4.31;42.91
75945;BME280;64628;50.104;14.614;2023-12-07T01:20:33;98778.21;;;4.33;43.25
75945;BME280;64628;50.104;14.614;2023-12-07T01:22:59;98780.61;;;4.22;43.44
75945;BME280;64628;50.104;14.614;2023-12-07T01:25:24;98779.12;;;4.38;43.19
75945;BME280;64628;50.104;14.614;2023-12-07T01:27:49;98778.93;;;4.15;43.30
75945;BME280;64628;50.104;14.614;2023-12-07T01:30:15;98777.97;;;4.47;43.05
75945;BME280;64628;50.104;14.614;2023-12-07T01:32:40;98777.05;;;4.45;43.20
75945;BME280;64628;50.104;14.614;2023-12-07T01:35:07;98775.71;;;4.25;43.15
75945;BME280;64628;50.104;14.614;2023-12-07T01:37:31;98779.95;;;4.53;43.10
75945;BME280;64628;50.104;14.614;2023-12-07T01:39:57;98776.75;;;4.55;43.09
75945;BME280;64628;50.104;14.614;2023-12-07T01:42:22;98777.79;;;4.44;42.94
75945;BME280;64628;50.104;14.614;2023-12-07T01:44:48;98781.56;;;4.57;43.12
75945;BME280;64628;50.104;14.614;2023-12-07T01:47:14;98782.76;;;4.61;43.10
75945;BME280;64628;50.104;14.614;2023-12-07T01:49:39;98780.33;;;4.65;43.09
75945;BME280;64628;50.104;14.614;2023-12-07T01:52:05;98782.31;;;4.67;43.06
75945;BME280;64628;50.104;14.614;2023-12-07T01:54:30;98783.69;;;4.48;43.01
75945;BME280;64628;50.104;14.614;2023-12-07T01:56:54;98785.15;;;4.69;43.01
75945;BME280;64628;50.104;14.614;2023-12-07T01:59:19;98786.25;;;4.42;42.99
75945;BME280;64628;50.104;14.614;2023-12-07T02:01:45;98788.11;;;4.66;43.07
75945;BME280;64628;50.104;14.614;2023-12-07T02:04:10;98791.30;;;4.46;42.98
75945;BME280;64628;50.104;14.614;2023-12-07T02:06:35;98790.17;;;4.51;42.87
75945;BME280;64628;50.104;14.614;2023-12-07T02:09:00;98792.49;;;4.51;42.92
75945;BME280;64628;50.104;14.614;2023-12-07T02:11:26;98793.82;;;4.50;43.01
75945;BME280;64628;50.104;14.614;2023-12-07T02:13:52;98796.57;;;4.53;42.92
75945;BME280;64628;50.104;14.614;2023-12-07T02:16:22;98797.56;;;4.30;42.95
75945;BME280;64628;50.104;14.614;2023-12-07T02:18:50;98800.34;;;4.57;42.89
75945;BME280;64628;50.104;14.614;2023-12-07T02:21:16;98802.91;;;4.86;42.90
75945;BME280;64628;50.104;14.614;2023-12-07T02:23:34;98803.49;;;4.89;42.89
75945;BME280;64628;50.104;14.614;2023-12-07T02:26:03;98803.82;;;4.62;42.92
75945;BME280;64628;50.104;14.614;2023-12-07T02:28:25;98803.46;;;4.62;42.93
75945;BME280;64628;50.104;14.614;2023-12-07T02:30:50;98804.32;;;4.38;42.97
75945;BME280;64628;50.104;14.614;2023-12-07T02:33:15;98806.02;;;4.78;43.07
75945;BME280;64628;50.104;14.614;2023-12-07T02:35:41;98805.79;;;4.64;43.40
75945;BME280;64628;50.104;14.614;2023-12-07T02:38:07;98807.04;;;4.48;43.25
75945;BME280;64628;50.104;14.614;2023-12-07T02:40:31;98810.69;;;4.72;43.31
75945;BME280;64628;50.104;14.614;2023-12-07T02:42:57;98812.39;;;4.78;43.33
75945;BME280;64628;50.104;14.614;2023-12-07T02:45:22;98813.15;;;4.60;43.29
75945;BME280;64628;50.104;14.614;2023-12-07T02:47:47;98819.35;;;4.86;43.26
75945;BME280;64628;50.104;14.614;2023-12-07T02:50:13;98824.39;;;4.91;43.23
75945;BME280;64628;50.104;14.614;2023-12-07T02:52:37;98824.99;;;4.52;43.13
75945;BME280;64628;50.104;14.614;2023-12-07T02:55:03;98824.24;;;4.57;43.05
75945;BME280;64628;50.104;14.614;2023-12-07T02:57:29;98825.55;;;4.89;42.99
75945;BME280;64628;50.104;14.614;2023-12-07T02:59:54;98829.11;;;4.94;42.91
75945;BME280;64628;50.104;14.614;2023-12-07T03:02:19;98830.61;;;4.74;42.81
75945;BME280;64628;50.104;14.614;2023-12-07T03:04:45;98831.97;;;4.73;42.75
75945;BME280;64628;50.104;14.614;2023-12-07T03:07:10;98831.87;;;4.94;42.75
75945;BME280;64628;50.104;14.614;2023-12-07T03:09:35;98836.73;;;4.92;42.75
75945;BME280;64628;50.104;14.614;2023-12-07T03:12:00;98838.12;;;4.95;42.71
75945;BME280;64628;50.104;14.614;2023-12-07T03:14:26;98836.26;;;4.72;42.69
75945;BME280;64628;50.104;14.614;2023-12-07T03:16:51;98838.61;;;4.77;42.68
75945;BME280;64628;50.104;14.614;2023-12-07T03:19:16;98840.64;;;4.75;42.68
75945;BME280;64628;50.104;14.614;2023-12-07T03:21:42;98844.96;;;4.99;42.68
75945;BME280;64628;50.104;14.614;2023-12-07T03:24:09;98848.64;;;5.00;42.68
75945;BME280;64628;50.104;14.614;2023-12-07T03:26:33;98851.30;;;4.79;42.67
75945;BME280;64628;50.104;14.614;2023-12-07T03:28:59;98855.88;;;5.33;42.65
75945;BME280;64628;50.104;14.614;2023-12-07T03:31:25;98859.06;;;5.09;42.69
75945;BME280;64628;50.104;14.614;2023-12-07T03:33:50;98861.31;;;4.80;42.76
75945;BME280;64628;50.104;14.614;2023-12-07T03:36:16;98861.80;;;4.82;42.76
75945;BME280;64628;50.104;14.614;2023-12-07T03:38:41;98862.69;;;5.02;42.87
75945;BME280;64628;50.104;14.614;2023-12-07T03:41:07;98863.90;;;4.80;42.79
75945;BME280;64628;50.104;14.614;2023-12-07T03:43:32;98867.72;;;4.77;42.83
75945;BME280;64628;50.104;14.614;2023-12-07T03:45:58;98866.99;;;4.78;42.74
75945;BME280;64628;50.104;14.614;2023-12-07T03:48:23;98863.77;;;5.00;42.81
75945;BME280;64628;50.104;14.614;2023-12-07T03:50:49;98864.08;;;5.29;42.81
75945;BME280;64628;50.104;14.614;2023-12-07T03:53:14;98862.07;;;5.06;42.73
75945;BME280;64628;50.104;14.614;2023-12-07T03:55:40;98864.82;;;5.08;42.73
75945;BME280;64628;50.104;14.614;2023-12-07T03:58:06;98869.45;;;5.15;42.68
75945;BME280;64628;50.104;14.614;2023-12-07T04:00:31;98873.49;;;4.84;42.69
75945;BME280;64628;50.104;14.614;2023-12-07T04:02:57;98878.05;;;5.04;42.79
75945;BME280;64628;50.104;14.614;2023-12-07T04:05:22;98880.28;;;4.82;42.79
75945;BME280;64628;50.104;14.614;2023-12-07T04:07:48;98878.48;;;4.86;42.74
75945;BME280;64628;50.104;14.614;2023-12-07T04:10:14;98877.41;;;5.10;42.73
75945;BME280;64628;50.104;14.614;2023-12-07T04:12:39;98875.87;;;4.84;42.73
75945;BME280;64628;50.104;14.614;2023-12-07T04:15:06;98878.87;;;4.80;42.79
75945;BME280;64628;50.104;14.614;2023-12-07T04:17:31;98883.49;;;5.05;42.79
75945;BME280;64628;50.104;14.614;2023-12-07T04:19:56;98886.98;;;4.88;42.73
75945;BME280;64628;50.104;14.614;2023-12-07T04:22:23;98888.69;;;4.75;42.90
75945;BME280;64628;50.104;14.614;2023-12-07T04:24:48;98892.33;;;5.01;42.93
75945;BME280;64628;50.104;14.614;2023-12-07T04:27:13;98892.69;;;4.80;42.88
75945;BME280;64628;50.104;14.614;2023-12-07T04:29:38;98899.20;;;5.05;42.90
75945;BME280;64628;50.104;14.614;2023-12-07T04:32:04;98901.15;;;5.06;42.91
75945;BME280;64628;50.104;14.614;2023-12-07T04:34:29;98903.56;;;4.88;42.87
75945;BME280;64628;50.104;14.614;2023-12-07T04:36:54;98905.08;;;4.95;42.83
75945;BME280;64628;50.104;14.614;2023-12-07T04:39:20;98906.28;;;5.15;42.82
75945;BME280;64628;50.104;14.614;2023-12-07T04:41:45;98908.53;;;4.92;42.82
75945;BME280;64628;50.104;14.614;2023-12-07T04:44:11;98911.02;;;5.14;42.84
75945;BME280;64628;50.104;14.614;2023-12-07T04:46:37;98910.86;;;5.11;42.89
75945;BME280;64628;50.104;14.614;2023-12-07T04:49:02;98914.49;;;5.11;42.94
75945;BME280;64628;50.104;14.614;2023-12-07T04:51:28;98911.47;;;5.09;43.01
75945;BME280;64628;50.104;14.614;2023-12-07T04:53:53;98914.31;;;4.93;42.82
75945;BME280;64628;50.104;14.614;2023-12-07T04:56:19;98914.93;;;4.97;42.81
75945;BME280;64628;50.104;14.614;2023-12-07T04:58:44;98918.59;;;5.17;42.91
75945;BME280;64628;50.104;14.614;2023-12-07T05:01:09;98920.43;;;4.96;42.89
75945;BME280;64628;50.104;14.614;2023-12-07T05:03:34;98923.36;;;5.03;42.78
75945;BME280;64628;50.104;14.614;2023-12-07T05:06:00;98921.83;;;5.29;42.68
75945;BME280;64628;50.104;14.614;2023-12-07T05:08:25;98920.62;;;4.91;42.78
75945;BME280;64628;50.104;14.614;2023-12-07T05:10:50;98922.99;;;5.18;42.88
75945;BME280;64628;50.104;14.614;2023-12-07T05:13:16;98924.64;;;4.98;42.80
75945;BME280;64628;50.104;14.614;2023-12-07T05:15:42;98927.83;;;5.02;42.79
75945;BME280;64628;50.104;14.614;2023-12-07T05:18:07;98926.75;;;5.30;42.70
75945;BME280;64628;50.104;14.614;2023-12-07T05:20:33;98932.79;;;5.55;42.65
75945;BME280;64628;50.104;14.614;2023-12-07T05:22:58;98934.57;;;4.60;42.68
75945;BME280;64628;50.104;14.614;2023-12-07T05:25:23;98937.12;;;5.07;42.70
75945;BME280;64628;50.104;14.614;2023-12-07T05:27:49;98940.22;;;5.07;42.72
75945;BME280;64628;50.104;14.614;2023-12-07T05:30:14;98938.54;;;5.13;42.63
75945;BME280;64628;50.104;14.614;2023-12-07T05:32:40;98937.44;;;5.32;42.66
75945;BME280;64628;50.104;14.614;2023-12-07T05:35:06;98937.92;;;5.12;42.59
75945;BME280;64628;50.104;14.614;2023-12-07T05:37:31;98937.10;;;5.15;42.52
75945;BME280;64628;50.104;14.614;2023-12-07T05:39:56;98937.56;;;5.38;42.51
75945;BME280;64628;50.104;14.614;2023-12-07T05:42:22;98940.52;;;5.09;42.56
75945;BME280;64628;50.104;14.614;2023-12-07T05:44:47;98945.39;;;5.34;42.62
75945;BME280;64628;50.104;14.614;2023-12-07T05:47:13;98947.44;;;5.31;42.66
75945;BME280;64628;50.104;14.614;2023-12-07T05:49:38;98948.39;;;5.13;42.64
75945;BME280;64628;50.104;14.614;2023-12-07T05:52:04;98949.03;;;5.06;42.72
75945;BME280;64628;50.104;14.614;2023-12-07T05:54:29;98950.08;;;5.10;42.68
75945;BME280;64628;50.104;14.614;2023-12-07T05:56:54;98947.65;;;5.03;42.74
75945;BME280;64628;50.104;14.614;2023-12-07T05:59:19;98948.73;;;5.27;42.81
75945;BME280;64628;50.104;14.614;2023-12-07T06:01:44;98946.20;;;5.07;42.76
75945;BME280;64628;50.104;14.614;2023-12-07T06:04:10;98950.13;;;5.03;42.84
75945;BME280;64628;50.104;14.614;2023-12-07T06:06:35;98955.29;;;5.14;42.93
75945;BME280;64628;50.104;14.614;2023-12-07T06:09:01;98956.23;;;5.24;42.81
75945;BME280;64628;50.104;14.614;2023-12-07T06:11:26;98958.94;;;5.01;42.74
75945;BME280;64628;50.104;14.614;2023-12-07T06:13:52;98958.48;;;5.26;42.81
75945;BME280;64628;50.104;14.614;2023-12-07T06:16:17;98964.53;;;5.06;42.79
75945;BME280;64628;50.104;14.614;2023-12-07T06:18:43;98964.72;;;5.05;42.78
75945;BME280;64628;50.104;14.614;2023-12-07T06:21:08;98965.30;;;5.24;42.86
75945;BME280;64628;50.104;14.614;2023-12-07T06:23:34;98967.33;;;5.26;42.90
75945;BME280;64628;50.104;14.614;2023-12-07T06:25:59;98968.49;;;4.98;42.95
75945;BME280;64628;50.104;14.614;2023-12-07T06:28:24;98970.80;;;5.18;43.08
75945;BME280;64628;50.104;14.614;2023-12-07T06:30:50;98972.29;;;5.21;43.09
75945;BME280;64628;50.104;14.614;2023-12-07T06:33:15;98972.21;;;4.75;43.14
75945;BME280;64628;50.104;14.614;2023-12-07T06:35:40;98972.06;;;5.05;43.00
75945;BME280;64628;50.104;14.614;2023-12-07T06:38:06;98976.20;;;5.07;42.95
75945;BME280;64628;50.104;14.614;2023-12-07T06:40:31;98976.44;;;4.87;42.85
75945;BME280;64628;50.104;14.614;2023-12-07T06:42:56;98975.01;;;5.17;42.81
75945;BME280;64628;50.104;14.614;2023-12-07T06:45:21;98976.60;;;5.42;42.67
75945;BME280;64628;50.104;14.614;2023-12-07T06:47:46;98976.82;;;5.17;42.73
75945;BME280;64628;50.104;14.614;2023-12-07T06:50:12;98979.92;;;5.19;42.68
75945;BME280;64628;50.104;14.614;2023-12-07T06:52:38;98987.19;;;5.36;42.82
75945;BME280;64628;50.104;14.614;2023-12-07T06:55:04;98995.79;;;5.03;42.95
75945;BME280;64628;50.104;14.614;2023-12-07T06:57:28;98996.37;;;4.94;43.00
75945;BME280;64628;50.104;14.614;2023-12-07T06:59:54;98998.09;;;4.94;43.09
75945;BME280;64628;50.104;14.614;2023-12-07T07:02:19;98999.33;;;5.03;42.97
75945;BME280;64628;50.104;14.614;2023-12-07T07:04:44;99001.11;;;5.46;43.07
75945;BME280;64628;50.104;14.614;2023-12-07T07:07:09;99002.57;;;5.28;43.01
75945;BME280;64628;50.104;14.614;2023-12-07T07:09:34;99003.67;;;5.06;42.93
75945;BME280;64628;50.104;14.614;2023-12-07T07:12:00;99003.55;;;5.12;42.80
75945;BME280;64628;50.104;14.614;2023-12-07T07:14:25;99001.07;;;5.56;42.98
75945;BME280;64628;50.104;14.614;2023-12-07T07:16:51;98998.32;;;5.14;42.95
75945;BME280;64628;50.104;14.614;2023-12-07T07:19:16;99002.55;;;5.17;42.91
75945;BME280;64628;50.104;14.614;2023-12-07T07:21:42;99005.34;;;5.23;42.85
75945;BME280;64628;50.104;14.614;2023-12-07T07:24:07;99003.92;;;5.35;42.73
75945;BME280;64628;50.104;14.614;2023-12-07T07:26:33;99004.22;;;5.31;42.57
75945;BME280;64628;50.104;14.614;2023-12-07T07:28:59;99005.42;;;5.43;42.54
75945;BME280;64628;50.104;14.614;2023-12-07T07:31:24;99006.27;;;5.44;42.50
75945;BME280;64628;50.104;14.614;2023-12-07T07:33:49;99007.68;;;5.22;42.58
75945;BME280;64628;50.104;14.614;2023-12-07T07:36:15;99012.32;;;5.25;42.61
75945;BME280;64628;50.104;14.614;2023-12-07T07:38:40;99012.50;;;5.55;42.48
75945;BME280;64628;50.104;14.614;2023-12-07T07:41:06;99011.45;;;5.56;42.45
75945;BME280;64628;50.104;14.614;2023-12-07T07:43:31;99015.67;;;5.40;42.42
75945;BME280;64628;50.104;14.614;2023-12-07T07:45:57;99016.19;;;5.59;42.49
75945;BME280;64628;50.104;14.614;2023-12-07T07:48:22;99019.82;;;5.64;42.36
75945;BME280;64628;50.104;14.614;2023-12-07T07:50:47;99019.77;;;5.64;42.30
75945;BME280;64628;50.104;14.614;2023-12-07T07:53:13;99021.54;;;5.62;42.41
75945;BME280;64628;50.104;14.614;2023-12-07T07:55:39;99020.82;;;5.68;42.25
75945;BME280;64628;50.104;14.614;2023-12-07T07:58:04;99021.74;;;5.79;42.00
75945;BME280;64628;50.104;14.614;2023-12-07T08:00:29;99020.73;;;5.77;42.14
75945;BME280;64628;50.104;14.614;2023-12-07T08:02:56;99020.11;;;5.68;42.20
75945;BME280;64628;50.104;14.614;2023-12-07T08:05:20;99017.57;;;5.60;42.34
75945;BME280;64628;50.104;14.614;2023-12-07T08:07:46;99015.33;;;5.61;42.52
75945;BME280;64628;50.104;14.614;2023-12-07T08:10:11;99019.29;;;5.56;42.50
75945;BME280;64628;50.104;14.614;2023-12-07T08:12:37;99018.62;;;5.73;42.42
75945;BME280;64628;50.104;14.614;2023-12-07T08:15:02;99023.11;;;5.80;42.40
75945;BME280;64628;50.104;14.614;2023-12-07T08:17:27;99018.91;;;5.90;42.24
75945;BME280;64628;50.104;14.614;2023-12-07T08:19:52;99021.58;;;5.68;42.12
75945;BME280;64628;50.104;14.614;2023-12-07T08:22:18;99023.22;;;5.92;42.10
75945;BME280;64628;50.104;14.614;2023-12-07T08:24:44;99026.08;;;5.87;42.22
75945;BME280;64628;50.104;14.614;2023-12-07T08:27:09;99029.58;;;5.74;42.40
75945;BME280;64628;50.104;14.614;2023-12-07T08:29:35;99030.22;;;5.72;42.61
75945;BME280;64628;50.104;14.614;2023-12-07T08:32:00;99035.07;;;5.35;42.38
75945;BME280;64628;50.104;14.614;2023-12-07T08:34:26;99037.28;;;5.60;42.42
75945;BME280;64628;50.104;14.614;2023-12-07T08:36:52;99038.93;;;5.93;42.37
75945;BME280;64628;50.104;14.614;2023-12-07T08:39:16;99040.80;;;5.79;42.26
75945;BME280;64628;50.104;14.614;2023-12-07T08:41:42;99040.72;;;5.68;42.16
75945;BME280;64628;50.104;14.614;2023-12-07T08:44:08;99039.48;;;6.17;41.96
75945;BME280;64628;50.104;14.614;2023-12-07T08:46:33;99039.26;;;5.99;41.87
75945;BME280;64628;50.104;14.614;2023-12-07T08:48:59;99039.11;;;6.17;41.78
75945;BME280;64628;50.104;14.614;2023-12-07T08:51:25;99042.59;;;6.03;42.03
75945;BME280;64628;50.104;14.614;2023-12-07T08:53:50;99043.75;;;5.98;42.02
75945;BME280;64628;50.104;14.614;2023-12-07T08:56:16;99046.63;;;6.03;41.84
75945;BME280;64628;50.104;14.614;2023-12-07T08:58:41;99046.07;;;6.19;41.66
75945;BME280;64628;50.104;14.614;2023-12-07T09:01:07;99049.23;;;6.05;41.43
75945;BME280;64628;50.104;14.614;2023-12-07T09:03:32;99052.93;;;6.03;41.42
75945;BME280;64628;50.104;14.614;2023-12-07T09:05:57;99053.57;;;5.84;41.56
75945;BME280;64628;50.104;14.614;2023-12-07T09:08:23;99054.24;;;6.16;41.43
75945;BME280;64628;50.104;14.614;2023-12-07T09:10:49;99057.56;;;6.30;41.46
75945;BME280;64628;50.104;14.614;2023-12-07T09:13:13;99060.23;;;5.86;41.33
75945;BME280;64628;50.104;14.614;2023-12-07T09:15:38;99060.50;;;6.10;41.65
75945;BME280;64628;50.104;14.614;2023-12-07T09:18:04;99053.50;;;6.43;41.64
75945;BME280;64628;50.104;14.614;2023-12-07T09:20:29;99061.13;;;5.94;41.55
75945;BME280;64628;50.104;14.614;2023-12-07T09:22:56;99057.31;;;6.30;41.54
75945;BME280;64628;50.104;14.614;2023-12-07T09:25:21;99059.47;;;6.17;41.63
75945;BME280;64628;50.104;14.614;2023-12-07T09:27:46;99061.83;;;5.93;41.79
75945;BME280;64628;50.104;14.614;2023-12-07T09:30:11;99061.66;;;6.18;41.72
75945;BME280;64628;50.104;14.614;2023-12-07T09:32:38;99061.16;;;6.37;41.79
75945;BME280;64628;50.104;14.614;2023-12-07T09:35:04;99058.20;;;6.10;41.53
75945;BME280;64628;50.104;14.614;2023-12-07T09:37:28;99059.39;;;6.46;41.70
75945;BME280;64628;50.104;14.614;2023-12-07T09:39:54;99057.72;;;6.35;41.83
75945;BME280;64628;50.104;14.614;2023-12-07T09:42:19;99058.43;;;5.81;42.11
75945;BME280;64628;50.104;14.614;2023-12-07T09:44:44;99057.49;;;5.96;42.03
75945;BME280;64628;50.104;14.614;2023-12-07T09:47:11;99056.90;;;5.86;42.18
75945;BME280;64628;50.104;14.614;2023-12-07T09:49:35;99055.95;;;6.51;42.02
75945;BME280;64628;50.104;14.614;2023-12-07T09:52:03;99060.76;;;6.13;42.17
75945;BME280;64628;50.104;14.614;2023-12-07T09:54:27;99059.30;;;6.05;41.86
75945;BME280;64628;50.104;14.614;2023-12-07T09:56:52;99060.09;;;6.38;41.73
75945;BME280;64628;50.104;14.614;2023-12-07T09:59:18;99059.26;;;6.23;41.73
75945;BME280;64628;50.104;14.614;2023-12-07T10:01:43;99057.05;;;6.13;41.81
75945;BME280;64628;50.104;14.614;2023-12-07T10:04:14;99058.81;;;6.02;41.91
75945;BME280;64628;50.104;14.614;2023-12-07T10:06:42;99056.56;;;6.14;41.69
75945;BME280;64628;50.104;14.614;2023-12-07T10:09:04;99052.91;;;6.14;41.75
75945;BME280;64628;50.104;14.614;2023-12-07T10:11:25;99056.33;;;6.48;41.58
75945;BME280;64628;50.104;14.614;2023-12-07T10:13:50;99052.46;;;6.08;41.56
75945;BME280;64628;50.104;14.614;2023-12-07T10:16:16;99047.78;;;6.41;41.30
75945;BME280;64628;50.104;14.614;2023-12-07T10:18:42;99048.82;;;6.43;41.35
75945;BME280;64628;50.104;14.614;2023-12-07T10:21:08;99049.22;;;6.58;41.17
75945;BME280;64628;50.104;14.614;2023-12-07T10:23:33;99046.00;;;6.28;41.46
75945;BME280;64628;50.104;14.614;2023-12-07T10:25:59;99045.63;;;6.33;41.36
75945;BME280;64628;50.104;14.614;2023-12-07T10:28:24;99041.32;;;6.52;41.44
75945;BME280;64628;50.104;14.614;2023-12-07T10:30:50;99038.64;;;6.34;41.79
75945;BME280;64628;50.104;14.614;2023-12-07T10:33:15;99039.52;;;6.35;41.56
75945;BME280;64628;50.104;14.614;2023-12-07T10:35:42;99037.92;;;6.20;41.47
75945;BME280;64628;50.104;14.614;2023-12-07T10:38:06;99038.36;;;6.35;41.49
75945;BME280;64628;50.104;14.614;2023-12-07T10:40:32;99043.50;;;6.24;41.58
75945;BME280;64628;50.104;14.614;2023-12-07T10:42:58;99044.08;;;6.18;41.41
75945;BME280;64628;50.104;14.614;2023-12-07T10:45:24;99045.12;;;6.28;41.40
75945;BME280;64628;50.104;14.614;2023-12-07T10:47:49;99044.91;;;6.23;41.14
75945;BME280;64628;50.104;14.614;2023-12-07T10:50:16;99042.23;;;6.47;41.18
75945;BME280;64628;50.104;14.614;2023-12-07T10:52:44;99042.88;;;6.54;40.97
75945;BME280;64628;50.104;14.614;2023-12-07T10:55:07;99041.39;;;6.57;41.00
75945;BME280;64628;50.104;14.614;2023-12-07T10:57:33;99042.87;;;6.39;41.19
75945;BME280;64628;50.104;14.614;2023-12-07T10:59:57;99043.10;;;6.81;41.10
75945;BME280;64628;50.104;14.614;2023-12-07T11:02:21;99040.65;;;6.52;41.07
75945;BME280;64628;50.104;14.614;2023-12-07T11:04:46;99042.07;;;6.62;41.01
75945;BME280;64628;50.104;14.614;2023-12-07T11:07:16;99044.67;;;6.67;40.96
75945;BME280;64628;50.104;14.614;2023-12-07T11:09:42;99043.13;;;6.70;40.95
75945;BME280;64628;50.104;14.614;2023-12-07T11:12:07;99043.24;;;6.78;41.00
75945;BME280;64628;50.104;14.614;2023-12-07T11:14:28;99039.36;;;6.89;40.72
75945;BME280;64628;50.104;14.614;2023-12-07T11:16:53;99041.08;;;6.99;40.51
75945;BME280;64628;50.104;14.614;2023-12-07T11:21:44;99040.82;;;7.17;40.00
75945;BME280;64628;50.104;14.614;2023-12-07T11:24:16;99037.28;;;6.86;39.88
75945;BME280;64628;50.104;14.614;2023-12-07T11:26:35;99036.31;;;6.91;40.03
75945;BME280;64628;50.104;14.614;2023-12-07T11:29:01;99034.27;;;7.01;40.15
75945;BME280;64628;50.104;14.614;2023-12-07T11:31:26;99034.61;;;6.99;40.16
75945;BME280;64628;50.104;14.614;2023-12-07T11:33:51;99033.83;;;7.24;39.86
75945;BME280;64628;50.104;14.614;2023-12-07T11:36:17;99034.29;;;6.95;40.09
75945;BME280;64628;50.104;14.614;2023-12-07T11:41:10;99032.95;;;7.09;39.69
75945;BME280;64628;50.104;14.614;2023-12-07T11:43:41;99034.58;;;6.99;39.65
75945;BME280;64628;50.104;14.614;2023-12-07T11:45:59;99035.19;;;6.80;39.65
75945;BME280;64628;50.104;14.614;2023-12-07T11:48:25;99033.36;;;7.24;39.44
75945;BME280;64628;50.104;14.614;2023-12-07T11:50:54;99036.70;;;6.82;39.70
75945;BME280;64628;50.104;14.614;2023-12-07T11:53:20;99033.94;;;6.82;39.78
75945;BME280;64628;50.104;14.614;2023-12-07T11:55:40;99032.39;;;6.70;40.08
75945;BME280;64628;50.104;14.614;2023-12-07T11:58:05;99034.36;;;6.76;40.16
75945;BME280;64628;50.104;14.614;2023-12-07T12:00:33;99035.14;;;6.82;39.90
75945;BME280;64628;50.104;14.614;2023-12-07T12:02:57;99035.73;;;6.86;40.01
75945;BME280;64628;50.104;14.614;2023-12-07T12:05:22;99031.85;;;6.48;40.23
75945;BME280;64628;50.104;14.614;2023-12-07T12:07:48;99032.25;;;6.83;40.18
75945;BME280;64628;50.104;14.614;2023-12-07T12:10:13;99027.99;;;6.81;40.42
75945;BME280;64628;50.104;14.614;2023-12-07T12:12:39;99029.24;;;6.85;40.42
75945;BME280;64628;50.104;14.614;2023-12-07T12:15:05;99030.42;;;6.91;40.22
75945;BME280;64628;50.104;14.614;2023-12-07T12:17:30;99029.37;;;6.65;40.23
75945;BME280;64628;50.104;14.614;2023-12-07T12:19:57;99027.66;;;6.77;40.11
75945;BME280;64628;50.104;14.614;2023-12-07T12:22:21;99025.29;;;6.96;40.18
75945;BME280;64628;50.104;14.614;2023-12-07T12:24:47;99019.24;;;6.86;40.09
75945;BME280;64628;50.104;14.614;2023-12-07T12:27:13;99016.98;;;7.10;39.89
75945;BME280;64628;50.104;14.614;2023-12-07T12:29:38;99018.02;;;7.15;39.92
75945;BME280;64628;50.104;14.614;2023-12-07T12:32:04;99017.62;;;6.97;39.89
75945;BME280;64628;50.104;14.614;2023-12-07T12:34:29;99016.11;;;6.99;39.70
75945;BME280;64628;50.104;14.614;2023-12-07T12:36:56;99017.15;;;7.21;39.49
75945;BME280;64628;50.104;14.614;2023-12-07T12:39:20;99015.41;;;6.83;39.55
75945;BME280;64628;50.104;14.614;2023-12-07T12:41:45;99015.59;;;6.78;39.96
75945;BME280;64628;50.104;14.614;2023-12-07T12:44:11;99015.96;;;6.44;39.83
75945;BME280;64628;50.104;14.614;2023-12-07T12:46:36;99019.21;;;6.72;39.92
75945;BME280;64628;50.104;14.614;2023-12-07T12:49:02;99020.15;;;7.04;39.84
75945;BME280;64628;50.104;14.614;2023-12-07T12:51:28;99018.74;;;7.10;39.91
75945;BME280;64628;50.104;14.614;2023-12-07T12:53:54;99017.92;;;6.86;39.74